createdAt,value
2023-07-04T00:01:22.353Z,51919.88
2023-07-04T00:03:53.657Z,51945.81
2023-07-04T00:06:22.997Z,51959.78
2023-07-04T00:08:52.127Z,51963.75
2023-07-04T00:11:21.657Z,51951.78
2023-07-04T00:13:52.282Z,51969.75
2023-07-04T00:16:21.578Z,51985.69
2023-07-04T00:18:50.177Z,51939.84
2023-07-04T00:21:20.110Z,51971.75
2023-07-04T00:23:53.665Z,51911.91
2023-07-04T00:26:24.396Z,51959.78
2023-07-04T00:28:54.469Z,51959.78
2023-07-04T00:31:26.211Z,51967.75
2023-07-04T00:33:55.443Z,52005.63
2023-07-04T00:36:24.184Z,51981.72
2023-07-04T00:38:58.289Z,51989.69
2023-07-04T00:41:29.214Z,51987.69
2023-07-04T00:44:10.602Z,51985.69
2023-07-04T00:46:42.922Z,51969.75
2023-07-04T00:49:24.135Z,52007.63
2023-07-04T00:52:04.597Z,51961.78
2023-07-04T00:54:37.413Z,51949.81
2023-07-04T00:57:07.814Z,51975.72
2023-07-04T00:59:44.826Z,51995.66
2023-07-04T01:02:16.766Z,51957.78
2023-07-04T01:04:46.039Z,51969.75
2023-07-04T01:07:27.313Z,51981.72
2023-07-04T01:09:59.390Z,52005.63
2023-07-04T01:12:31.256Z,51921.88
2023-07-04T01:15:02.090Z,51973.72
2023-07-04T01:17:31.368Z,51959.78
2023-07-04T01:20:01.064Z,51969.75
2023-07-04T01:22:38.079Z,51957.78
2023-07-04T01:25:13.379Z,51957.78
2023-07-04T01:27:45.611Z,51997.66
2023-07-04T01:30:15.013Z,51931.84
2023-07-04T01:32:44.413Z,51969.75
2023-07-04T01:35:14.807Z,51975.72
2023-07-04T01:37:43.060Z,51979.72
2023-07-04T01:40:13.847Z,51987.69
2023-07-04T01:42:44.019Z,51947.81
2023-07-04T01:45:12.716Z,51933.84
2023-07-04T01:47:41.388Z,51939.84
2023-07-04T01:50:12.312Z,51991.69
2023-07-04T01:52:42.210Z,51983.72
2023-07-04T01:55:11.799Z,51941.81
2023-07-04T01:57:40.435Z,51987.69
2023-07-04T02:00:11.869Z,51963.75
2023-07-04T02:02:58.920Z,51975.72
2023-07-04T02:05:27.903Z,52011.63
2023-07-04T02:07:56.026Z,52001.66
2023-07-04T02:10:24.215Z,51999.66
2023-07-04T02:12:52.438Z,52033.56
2023-07-04T02:15:23.567Z,51991.69
2023-07-04T02:17:52.056Z,51995.66
2023-07-04T02:20:21.865Z,51957.78
2023-07-04T02:22:50.011Z,51989.69
2023-07-04T02:25:18.224Z,52003.66
2023-07-04T02:27:46.719Z,51995.66
2023-07-04T02:30:15.364Z,51987.69
2023-07-04T02:32:44.836Z,51965.75
2023-07-04T02:35:15.446Z,52007.63
2023-07-04T02:37:44.700Z,51981.72
2023-07-04T02:40:13.846Z,51995.66
2023-07-04T02:42:42.201Z,51987.69
2023-07-04T02:45:11.652Z,51995.66
2023-07-04T02:47:40.286Z,51981.72
2023-07-04T02:50:13.722Z,51979.72
2023-07-04T02:52:43.107Z,51969.75
2023-07-04T02:55:11.149Z,51979.72
2023-07-04T02:57:39.281Z,52003.66
2023-07-04T03:00:08.988Z,51967.75
2023-07-04T03:02:38.392Z,51957.78
2023-07-04T03:05:08.506Z,52009.63
2023-07-04T03:07:39.143Z,51987.69
2023-07-04T03:10:09.652Z,52025.59
2023-07-04T03:12:37.812Z,51989.69
2023-07-04T03:15:08.228Z,51969.75
2023-07-04T03:17:41.545Z,51955.78
2023-07-04T03:20:11.582Z,51997.66
2023-07-04T03:22:43.426Z,51965.75
2023-07-04T03:25:13.038Z,51929.88
2023-07-04T03:27:42.403Z,51969.75
2023-07-04T03:30:14.312Z,51985.69
2023-07-04T03:32:45.279Z,51973.72
2023-07-04T03:35:13.501Z,51967.75
2023-07-04T03:37:45.734Z,51961.78
2023-07-04T03:40:15.253Z,51957.78
2023-07-04T03:42:43.828Z,51963.75
2023-07-04T03:45:12.867Z,51955.78
2023-07-04T03:47:41.400Z,51967.75
2023-07-04T03:50:14.424Z,51929.88
2023-07-04T03:52:46.709Z,51925.88
2023-07-04T03:55:15.804Z,51961.78
2023-07-04T03:57:43.768Z,51973.72
2023-07-04T04:00:14.020Z,51949.81
2023-07-04T04:02:57.160Z,51955.78
2023-07-04T04:05:25.581Z,51919.88
2023-07-04T04:07:55.141Z,51939.84
2023-07-04T04:10:23.690Z,51921.88
2023-07-04T04:12:51.851Z,51905.94
2023-07-04T04:15:20.274Z,51903.94
2023-07-04T04:17:49.270Z,51909.91
2023-07-04T04:20:17.498Z,51923.88
2023-07-04T04:22:46.752Z,51907.94
2023-07-04T04:25:18.200Z,51909.91
2023-07-04T04:27:48.230Z,51915.91
2023-07-04T04:30:16.947Z,51864.06
2023-07-04T04:32:46.493Z,51872.03
2023-07-04T04:35:16.162Z,51937.84
2023-07-04T04:37:44.288Z,51905.94
2023-07-04T04:40:13.273Z,51913.91
2023-07-04T04:42:45.152Z,51901.94
2023-07-04T04:45:15.550Z,51893.97
2023-07-04T04:47:49.960Z,51897.94
2023-07-04T04:50:18.560Z,51868.03
2023-07-04T04:52:46.969Z,51858.06
2023-07-04T04:55:15.260Z,51887.97
2023-07-04T04:57:45.011Z,51854.09
2023-07-04T05:00:14.311Z,51886.00
2023-07-04T05:02:42.328Z,51895.97
2023-07-04T05:05:10.802Z,51858.06
2023-07-04T05:07:38.869Z,51860.06
2023-07-04T05:10:07.851Z,51814.19
2023-07-04T05:12:36.511Z,51832.16
2023-07-04T05:15:07.606Z,51876.03
2023-07-04T05:17:36.117Z,51814.19
2023-07-04T05:20:06.471Z,51832.16
2023-07-04T05:22:35.557Z,51836.13
2023-07-04T05:25:03.512Z,51810.22
2023-07-04T05:27:31.733Z,51850.09
2023-07-04T05:29:59.867Z,51844.13
2023-07-04T05:32:29.292Z,51818.19
2023-07-04T05:34:57.536Z,51814.19
2023-07-04T05:37:25.804Z,51830.16
2023-07-04T05:39:54.040Z,51826.16
2023-07-04T05:42:22.266Z,51856.06
2023-07-04T05:44:50.525Z,51796.25
2023-07-04T05:47:18.880Z,51808.22
2023-07-04T05:49:48.414Z,51810.22
2023-07-04T05:52:16.729Z,51832.16
2023-07-04T05:54:44.874Z,51802.22
2023-07-04T05:57:14.280Z,51866.03
2023-07-04T05:59:42.269Z,51818.19
2023-07-04T06:02:10.415Z,51810.22
2023-07-04T06:04:38.692Z,51818.19
2023-07-04T06:07:08.449Z,51820.19
2023-07-04T06:09:36.428Z,51836.13
2023-07-04T06:12:05.084Z,51814.19
2023-07-04T06:14:33.271Z,51828.16
2023-07-04T06:17:03.507Z,51854.09
2023-07-04T06:19:31.528Z,51800.25
2023-07-04T06:21:59.712Z,51768.34
2023-07-04T06:24:29.066Z,51814.19
2023-07-04T06:26:57.280Z,51802.22
2023-07-04T06:29:25.691Z,51758.38
2023-07-04T06:31:53.899Z,51832.16
2023-07-04T06:34:22.014Z,51800.25
2023-07-04T06:36:51.336Z,51818.19
2023-07-04T06:39:19.580Z,51778.31
2023-07-04T06:41:50.727Z,51814.19
2023-07-04T06:44:21.824Z,51826.16
2023-07-04T06:46:50.141Z,51780.31
2023-07-04T06:49:18.324Z,51770.31
2023-07-04T06:51:46.453Z,51806.22
2023-07-04T06:56:43.756Z,51752.38
2023-07-04T06:59:13.274Z,51722.47
2023-07-04T07:01:42.789Z,51664.63
2023-07-04T07:04:13.185Z,51640.72
2023-07-04T07:06:41.510Z,51630.75
2023-07-04T07:09:09.667Z,51694.56
2023-07-04T07:11:37.921Z,51670.63
2023-07-04T07:14:06.875Z,51638.72
2023-07-04T07:16:36.519Z,51616.78
2023-07-04T07:19:04.679Z,51576.91
2023-07-04T07:21:32.901Z,51509.09
2023-07-04T07:24:03.530Z,51545.00
2023-07-04T07:26:31.894Z,51578.91
2023-07-04T07:29:00.156Z,51592.84
2023-07-04T07:31:33.538Z,51600.84
2023-07-04T07:34:05.977Z,51602.81
2023-07-04T07:36:39.005Z,51636.72
2023-07-04T07:39:09.736Z,51652.69
2023-07-04T07:41:40.374Z,51630.75
2023-07-04T07:44:09.912Z,51650.69
2023-07-04T07:46:38.688Z,51670.63
2023-07-04T07:49:09.487Z,51626.75
2023-07-04T07:51:39.532Z,51714.50
2023-07-04T07:54:08.886Z,51728.44
2023-07-04T07:56:42.533Z,51670.63
2023-07-04T07:59:11.122Z,51710.50
2023-07-04T08:01:39.669Z,51724.47
2023-07-04T08:04:11.649Z,51664.63
2023-07-04T08:06:44.320Z,51664.63
2023-07-04T08:09:14.905Z,51634.72
2023-07-04T08:11:44.863Z,51674.63
2023-07-04T08:14:13.047Z,51539.00
2023-07-04T08:16:46.580Z,51566.94
2023-07-04T08:19:18.114Z,51638.72
2023-07-04T08:21:47.130Z,51656.66
2023-07-04T08:24:16.477Z,51582.88
2023-07-04T08:26:47.087Z,51485.19
2023-07-04T08:29:16.260Z,51453.28
2023-07-04T08:31:44.707Z,51626.75
2023-07-04T08:34:13.341Z,51612.78
2023-07-04T08:36:45.475Z,51612.78
2023-07-04T08:39:13.904Z,51606.81
2023-07-04T08:41:47.982Z,51610.81
2023-07-04T08:44:19.562Z,51505.13
2023-07-04T08:46:49.912Z,51505.13
2023-07-04T08:49:27.096Z,51503.13
2023-07-04T08:52:03.688Z,51549.00
2023-07-04T08:54:33.044Z,51515.09
2023-07-04T08:57:05.735Z,51441.31
2023-07-04T08:59:42.956Z,51489.16
2023-07-04T09:02:26.010Z,51489.16
2023-07-04T09:05:01.282Z,51439.31
2023-07-04T09:07:37.319Z,51417.38
2023-07-04T09:10:17.424Z,51515.09
2023-07-04T09:12:46.303Z,51511.09
2023-07-04T09:15:24.396Z,51483.19
2023-07-04T09:18:12.244Z,51507.13
2023-07-04T09:20:52.298Z,51570.91
2023-07-04T09:23:24.133Z,51618.78
2023-07-04T09:25:58.379Z,51574.91
2023-07-04T09:28:27.701Z,51539.00
2023-07-04T09:30:59.556Z,51459.25
2023-07-04T09:33:29.622Z,51455.28
2023-07-04T09:35:59.093Z,51377.50
2023-07-04T09:38:28.772Z,51389.47
2023-07-04T09:41:10.855Z,51427.34
2023-07-04T09:44:29.056Z,51497.13
2023-07-04T09:47:00.767Z,51550.97
2023-07-04T09:49:31.974Z,51624.75
2023-07-04T09:52:03.007Z,51602.81
2023-07-04T09:54:38.046Z,51507.13
2023-07-04T09:57:22.343Z,51471.22
2023-07-04T09:59:52.498Z,51473.22
2023-07-04T10:02:34.727Z,51435.31
2023-07-04T10:05:05.301Z,51497.13
2023-07-04T10:07:34.104Z,51511.09
2023-07-04T10:10:08.679Z,51517.09
2023-07-04T10:12:44.613Z,51441.31
2023-07-04T10:15:21.099Z,51503.13
2023-07-04T10:17:49.386Z,51535.03
2023-07-04T10:20:17.625Z,51521.06
2023-07-04T10:22:52.638Z,51447.28
2023-07-04T10:25:24.245Z,51465.25
2023-07-04T10:27:56.428Z,51475.22
2023-07-04T10:30:31.147Z,51437.31
2023-07-04T10:33:06.105Z,51475.22
2023-07-04T10:35:37.309Z,51467.22
2023-07-04T10:38:11.195Z,51505.13
2023-07-04T10:40:42.221Z,51489.16
2023-07-04T10:43:14.625Z,51487.16
2023-07-04T10:45:52.231Z,51501.13
2023-07-04T10:48:33.273Z,51527.06
2023-07-04T10:51:06.443Z,51485.19
2023-07-04T10:53:34.707Z,51513.09
2023-07-04T10:56:09.958Z,51447.28
2023-07-04T10:58:43.432Z,51463.25
2023-07-04T11:01:15.828Z,51437.31
2023-07-04T11:03:48.965Z,51503.13
2023-07-04T11:06:21.347Z,51503.13
2023-07-04T11:08:51.727Z,51523.06
2023-07-04T11:11:30.213Z,51539.00
2023-07-04T11:14:04.444Z,51467.22
2023-07-04T11:16:34.599Z,51503.13
2023-07-04T11:19:07.136Z,51519.06
2023-07-04T11:21:35.964Z,51539.00
2023-07-04T11:24:16.637Z,51545.00
2023-07-04T11:26:53.216Z,51501.13
2023-07-04T11:29:24.685Z,51549.00
2023-07-04T11:32:17.935Z,51541.00
2023-07-04T11:34:49.256Z,51505.13
2023-07-04T11:37:25.188Z,51543.00
2023-07-04T11:39:57.321Z,51515.09
2023-07-04T11:42:39.720Z,51483.19
2023-07-04T11:45:10.236Z,51511.09
2023-07-04T11:47:45.136Z,51537.03
2023-07-04T11:50:17.627Z,51519.06
2023-07-04T11:52:55.134Z,51505.13
2023-07-04T11:55:27.456Z,51499.13
2023-07-04T11:58:20.168Z,51475.22
2023-07-04T12:01:06.221Z,51475.22
2023-07-04T12:03:56.231Z,51491.16
2023-07-04T12:07:01.153Z,51507.13
2023-07-04T12:12:08.695Z,51550.97
2023-07-04T12:14:40.241Z,51505.13
2023-07-04T12:17:09.132Z,51455.28
2023-07-04T12:19:37.138Z,51483.19
2023-07-04T12:22:05.540Z,51435.31
2023-07-04T12:24:33.596Z,51479.19
2023-07-04T12:27:03.324Z,51457.25
2023-07-04T12:32:09.523Z,51481.19
2023-07-04T12:37:15.827Z,51457.25
2023-07-04T12:39:47.274Z,51463.25
2023-07-04T12:42:21.849Z,51447.28
2023-07-04T12:44:50.346Z,51409.41
2023-07-04T12:47:25.879Z,51477.19
2023-07-04T12:49:57.404Z,51489.16
2023-07-04T12:52:33.940Z,51499.13
2023-07-04T12:55:03.803Z,51527.06
2023-07-04T12:57:33.479Z,51509.09
2023-07-04T13:00:27.781Z,51537.03
2023-07-04T13:02:59.313Z,51517.09
2023-07-04T13:05:40.635Z,51570.91
2023-07-04T13:08:12.872Z,51554.97
2023-07-04T13:10:41.809Z,51582.88
2023-07-04T13:13:31.612Z,51556.97
2023-07-04T13:16:15.413Z,51509.09
2023-07-04T13:18:46.485Z,51487.16
2023-07-04T13:21:28.005Z,51517.09
2023-07-04T13:26:30.651Z,51552.97
2023-07-04T13:34:18.721Z,51549.00
2023-07-04T13:36:49.799Z,51547.00
2023-07-04T13:41:52.984Z,51543.00
2023-07-04T13:46:55.111Z,51543.00
2023-07-04T13:49:25.195Z,51489.16
2023-07-04T13:51:54.254Z,51501.13
2023-07-04T13:54:23.018Z,51505.13
2023-07-04T13:56:51.182Z,51543.00
2023-07-04T13:59:19.597Z,51523.06
2023-07-04T14:06:53.326Z,51550.97
2023-07-04T14:09:23.014Z,51531.03
2023-07-04T14:11:51.280Z,51487.16
2023-07-04T14:21:54.999Z,51501.13
2023-07-04T14:24:23.159Z,51501.13
2023-07-04T14:26:51.342Z,51483.19
2023-07-04T14:29:19.412Z,51427.34
2023-07-04T14:31:47.628Z,51449.28
2023-07-04T14:34:16.203Z,51471.22
2023-07-04T14:36:44.327Z,51447.28
2023-07-04T14:39:14.530Z,51443.31
2023-07-04T14:44:13.534Z,51415.38
2023-07-04T14:46:41.883Z,51455.28
2023-07-04T14:49:10.223Z,51497.13
2023-07-04T14:51:38.328Z,51477.19
2023-07-04T14:54:06.694Z,51437.31
2023-07-04T14:56:45.517Z,51423.38
2023-07-04T14:59:18.843Z,51453.28
2023-07-04T15:01:46.923Z,51473.22
2023-07-04T15:04:15.112Z,51439.31
2023-07-04T15:06:43.452Z,51415.38
2023-07-04T15:09:11.850Z,51439.31
2023-07-04T15:11:41.358Z,51435.31
2023-07-04T15:14:09.421Z,51467.22
2023-07-04T15:16:37.663Z,51441.31
2023-07-04T15:19:06.447Z,51475.22
2023-07-04T15:21:34.543Z,51513.09
2023-07-04T15:24:03.666Z,51499.13
2023-07-04T15:26:31.804Z,51493.16
2023-07-04T15:29:01.343Z,51469.22
2023-07-04T15:31:30.100Z,51477.19
2023-07-04T15:33:59.368Z,51491.16
2023-07-04T15:36:28.769Z,51455.28
2023-07-04T15:38:57.251Z,51459.25
2023-07-04T15:41:27.204Z,51453.28
2023-07-04T15:43:56.085Z,51471.22
2023-07-04T15:46:27.420Z,51467.22
2023-07-04T15:48:56.374Z,51483.19
2023-07-04T15:51:26.619Z,51445.28
2023-07-04T15:53:55.033Z,51467.22
2023-07-04T15:56:28.321Z,51455.28
2023-07-04T15:58:57.349Z,51457.25
2023-07-04T16:01:26.867Z,51473.22
2023-07-04T16:03:58.468Z,51429.34
2023-07-04T16:06:27.286Z,51421.38
2023-07-04T16:08:56.030Z,51433.34
2023-07-04T16:11:24.604Z,51463.25
2023-07-04T16:13:52.867Z,51463.25
2023-07-04T16:16:23.443Z,51475.22
2023-07-04T16:18:53.508Z,51483.19
2023-07-04T16:21:25.300Z,51467.22
2023-07-04T16:23:53.941Z,51451.28
2023-07-04T16:26:24.025Z,51459.25
2023-07-04T16:28:53.130Z,51481.19
2023-07-04T16:31:21.321Z,51481.19
2023-07-04T16:33:50.288Z,51477.19
2023-07-04T16:36:20.735Z,51493.16
2023-07-04T16:38:48.851Z,51463.25
2023-07-04T16:41:17.217Z,51463.25
2023-07-04T16:43:45.352Z,51467.22
2023-07-04T16:46:15.088Z,51487.16
2023-07-04T16:48:43.283Z,51531.03
2023-07-04T16:51:11.552Z,51475.22
2023-07-04T16:53:41.243Z,51505.13
2023-07-04T16:56:09.816Z,51499.13
2023-07-04T16:58:38.727Z,51479.19
2023-07-04T17:01:07.740Z,51519.06
2023-07-04T17:03:36.373Z,51503.13
2023-07-04T17:06:06.787Z,51503.13
2023-07-04T17:08:37.689Z,51517.09
2023-07-04T17:11:09.819Z,51515.09
2023-07-04T17:13:40.244Z,51507.13
2023-07-04T17:16:09.913Z,51505.13
2023-07-04T17:18:38.968Z,51493.16
2023-07-04T17:21:08.300Z,51499.13
2023-07-04T17:23:36.737Z,51517.09
2023-07-04T17:26:06.048Z,51525.06
2023-07-04T17:28:35.705Z,51523.06
2023-07-04T17:31:06.272Z,51539.00
2023-07-04T17:33:34.776Z,51527.06
2023-07-04T17:36:04.916Z,51543.00
2023-07-04T17:38:34.770Z,51531.03
2023-07-04T17:41:07.543Z,51539.00
2023-07-04T17:43:37.530Z,51558.97
2023-07-04T17:46:08.037Z,51531.03
2023-07-04T17:48:37.062Z,51554.97
2023-07-04T17:51:06.507Z,51543.00
2023-07-04T17:53:34.940Z,51517.09
2023-07-04T17:56:06.118Z,51545.00
2023-07-04T17:58:35.172Z,51576.91
2023-07-04T18:01:08.118Z,51550.97
2023-07-04T18:03:38.331Z,51545.00
2023-07-04T18:06:08.461Z,51564.94
2023-07-04T18:08:38.221Z,51574.91
2023-07-04T18:11:07.808Z,51560.94
2023-07-04T18:13:36.919Z,51572.91
2023-07-04T18:16:07.125Z,51562.94
2023-07-04T18:18:35.450Z,51610.81
2023-07-04T18:21:06.185Z,51604.81
2023-07-04T18:23:35.168Z,51584.88
2023-07-04T18:26:03.875Z,51624.75
2023-07-04T18:28:34.712Z,51608.81
2023-07-04T18:31:10.423Z,51630.75
2023-07-04T18:33:39.722Z,51624.75
2023-07-04T18:36:12.182Z,51618.78
2023-07-04T18:38:41.799Z,51622.75
2023-07-04T18:41:12.934Z,51656.66
2023-07-04T18:43:41.582Z,51652.69
2023-07-04T18:46:11.741Z,51672.63
2023-07-04T18:48:39.892Z,51690.56
2023-07-04T18:51:12.331Z,51666.63
2023-07-04T18:53:40.958Z,51680.59
2023-07-04T18:56:09.981Z,51660.66
2023-07-04T18:58:40.011Z,51666.63
2023-07-04T19:01:14.670Z,51690.56
2023-07-04T19:03:44.602Z,51676.59
2023-07-04T19:06:15.269Z,51680.59
2023-07-04T19:08:45.253Z,51726.47
2023-07-04T19:11:15.041Z,51718.47
2023-07-04T19:13:43.928Z,51710.50
2023-07-04T19:16:13.355Z,51760.34
2023-07-04T19:18:41.637Z,51718.47
2023-07-04T19:21:10.143Z,51746.41
2023-07-04T19:23:38.162Z,51746.41
2023-07-04T19:26:10.635Z,51756.38
2023-07-04T19:28:38.925Z,51754.38
2023-07-04T19:31:07.435Z,51766.34
2023-07-04T19:33:37.062Z,51750.38
2023-07-04T19:36:05.276Z,51796.25
2023-07-04T19:38:33.499Z,51764.34
2023-07-04T19:41:03.290Z,51780.31
2023-07-04T19:43:32.379Z,51772.31
2023-07-04T19:46:01.860Z,51780.31
2023-07-04T19:48:32.074Z,51762.34
2023-07-04T19:51:07.207Z,51806.22
2023-07-04T19:53:37.116Z,51738.41
2023-07-04T19:56:07.734Z,51766.34
2023-07-04T19:58:36.641Z,51758.38
2023-07-04T20:01:07.440Z,51828.16
2023-07-04T20:03:38.174Z,51752.38
2023-07-04T20:06:10.235Z,51784.28
2023-07-04T20:08:40.323Z,51788.28
2023-07-04T20:11:08.844Z,51768.34
2023-07-04T20:13:37.193Z,51794.25
2023-07-04T20:16:09.965Z,51800.25
2023-07-04T20:18:39.025Z,51782.28
2023-07-04T20:21:08.897Z,51810.22
2023-07-04T20:23:37.596Z,51802.22
2023-07-04T20:26:07.586Z,51802.22
2023-07-04T20:28:37.706Z,51812.22
2023-07-04T20:31:06.498Z,51786.28
2023-07-04T20:33:36.376Z,51816.19
2023-07-04T20:36:05.825Z,51808.22
2023-07-04T20:38:36.237Z,51826.16
2023-07-04T20:41:05.949Z,51812.22
2023-07-04T20:43:34.628Z,51824.16
2023-07-04T20:46:03.424Z,51774.31
2023-07-04T20:48:31.946Z,51782.28
2023-07-04T20:51:05.437Z,51758.38
2023-07-04T20:53:35.293Z,51838.13
2023-07-04T20:56:03.862Z,51788.28
2023-07-04T20:58:32.358Z,51818.19
2023-07-04T21:01:00.524Z,51830.16
2023-07-04T21:03:31.037Z,51848.09
2023-07-04T21:06:03.825Z,51786.28
2023-07-04T21:08:32.046Z,51826.16
2023-07-04T21:11:04.852Z,51764.34
2023-07-04T21:13:34.141Z,51820.19
2023-07-04T21:16:04.968Z,51834.13
2023-07-04T21:18:33.512Z,51856.06
2023-07-04T21:21:26.822Z,51842.13
2023-07-04T21:23:55.334Z,51842.13
2023-07-04T21:26:24.984Z,51870.03
2023-07-04T21:28:53.170Z,51840.13
2023-07-04T21:31:21.287Z,51824.16
2023-07-04T21:33:49.680Z,51838.13
2023-07-04T21:36:17.778Z,51846.09
2023-07-04T21:38:47.278Z,51826.16
2023-07-04T21:41:17.481Z,51848.09
2023-07-04T21:43:46.964Z,51846.09
2023-07-04T21:46:15.054Z,51840.13
2023-07-04T21:48:43.223Z,51830.16
2023-07-04T21:51:11.303Z,51882.00
2023-07-04T21:53:40.388Z,51826.16
2023-07-04T21:56:08.660Z,51866.03
2023-07-04T21:58:37.174Z,51862.06
2023-07-04T22:01:08.233Z,51889.97
2023-07-04T22:03:38.876Z,51884.00
2023-07-04T22:06:09.128Z,51850.09
2023-07-04T22:08:39.735Z,51840.13
2023-07-04T22:11:10.323Z,51858.06
2023-07-04T22:13:38.698Z,51858.06
2023-07-04T22:16:10.190Z,51868.03
2023-07-04T22:18:39.559Z,51874.03
2023-07-04T22:21:09.856Z,51886.00
2023-07-04T22:23:39.102Z,51907.94
2023-07-04T22:26:08.262Z,51870.03
2023-07-04T22:28:36.930Z,51862.06
2023-07-04T22:31:07.396Z,51870.03
2023-07-04T22:33:44.229Z,51850.09
2023-07-04T22:36:12.743Z,51834.13
2023-07-04T22:38:40.828Z,51866.03
2023-07-04T22:41:09.103Z,51878.00
2023-07-04T22:43:37.137Z,51878.00
2023-07-04T22:46:05.217Z,51889.97
2023-07-04T22:48:33.411Z,51886.00
2023-07-04T22:51:04.975Z,51882.00
2023-07-04T22:53:33.029Z,51862.06
2023-07-04T22:56:05.813Z,51810.22
2023-07-04T22:58:35.804Z,51816.19
2023-07-04T23:01:11.217Z,51901.94
2023-07-04T23:03:40.183Z,51919.88
2023-07-04T23:06:11.365Z,51872.03
2023-07-04T23:08:39.775Z,51905.94
2023-07-04T23:11:07.872Z,51897.94
2023-07-04T23:13:36.309Z,51872.03
2023-07-04T23:23:15.260Z,51901.94
2023-07-04T23:25:43.615Z,51866.03
2023-07-04T23:28:11.784Z,51891.97
2023-07-04T23:30:39.924Z,51880.00
2023-07-04T23:33:07.970Z,51868.03
2023-07-04T23:35:36.334Z,51884.00
2023-07-04T23:38:04.769Z,51891.97
2023-07-04T23:40:34.713Z,51925.88
2023-07-04T23:43:02.687Z,51937.84
2023-07-04T23:45:30.710Z,51909.91
2023-07-04T23:47:58.909Z,51899.94
2023-07-04T23:50:27.912Z,51943.81
2023-07-04T23:52:55.867Z,51895.97
2023-07-04T23:55:23.906Z,51878.00
2023-07-04T23:57:53.389Z,51880.00
